Time;durP1;ratioP1;P1;durP2;ratioP2;P2;SDS_P1;SDS_P2;PMS_P1;PMS_P2;Temp;Humidity;BMP_temperature;BMP_pressure;BME280_temperature;BME280_humidity;BME280_pressure;Samples;Min_cycle;Max_cycle;Signal;HPM_P1;HPM_P2
2023/10/07 00:01:24;;;;;;;8.23;5.90;;;9.40;99.90;;;;;;5033701;28;20463;-62
2023/10/07 00:03:53;;;;;;;10.60;6.03;;;9.40;99.90;;;;;;5033875;28;20251;-62
2023/10/07 00:06:25;;;;;;;7.60;6.90;;;9.40;99.90;;;;;;5033425;28;20832;-62
2023/10/07 00:08:52;;;;;;;8.40;5.60;;;9.40;99.90;;;;;;5033588;28;20468;-62
2023/10/07 00:11:19;;;;;;;10.87;7.10;;;9.30;99.90;;;;;;5033924;28;20526;-62
2023/10/07 00:13:48;;;;;;;5.97;5.03;;;9.30;99.90;;;;;;5033474;28;20498;-62
2023/10/07 00:16:18;;;;;;;6.67;5.33;;;9.30;99.90;;;;;;5033597;28;20491;-62
2023/10/07 00:18:45;;;;;;;10.53;7.00;;;9.30;99.90;;;;;;5032940;28;20477;-62
2023/10/07 00:21:24;;;;;;;7.60;6.37;;;9.30;99.90;;;;;;5033180;28;20504;-62
2023/10/07 00:23:52;;;;;;;11.00;5.60;;;9.30;99.90;;;;;;5033226;28;20450;-62
2023/10/07 00:26:19;;;;;;;8.90;7.43;;;9.30;99.90;;;;;;5033414;28;20823;-61
2023/10/07 00:28:54;;;;;;;8.13;6.07;;;9.30;99.90;;;;;;5033089;28;20235;-62
2023/10/07 00:31:27;;;;;;;8.43;6.30;;;9.20;99.90;;;;;;5033453;28;20542;-62
2023/10/07 00:34:02;;;;;;;6.78;5.90;;;9.20;99.90;;;;;;5033349;28;20549;-62
2023/10/07 00:36:41;;;;;;;9.93;7.03;;;9.20;99.90;;;;;;5033367;28;20625;-62
2023/10/07 00:39:09;;;;;;;8.77;7.15;;;9.20;99.90;;;;;;5032675;28;20235;-62
2023/10/07 00:41:45;;;;;;;8.93;6.33;;;9.20;99.90;;;;;;5033160;28;20576;-62
2023/10/07 00:44:18;;;;;;;10.03;6.70;;;9.20;99.90;;;;;;5032946;28;20446;-62
2023/10/07 00:46:48;;;;;;;8.00;7.00;;;9.20;99.90;;;;;;5033215;28;20803;-62
2023/10/07 00:49:22;;;;;;;8.13;6.73;;;9.20;99.90;;;;;;5032353;28;20511;-62
2023/10/07 00:51:52;;;;;;;11.17;7.33;;;9.20;99.90;;;;;;5032628;28;20491;-62
2023/10/07 00:54:30;;;;;;;7.23;6.53;;;9.20;99.90;;;;;;5032511;28;20523;-62
2023/10/07 00:57:07;;;;;;;9.60;6.60;;;9.30;99.90;;;;;;5033016;28;20539;-61
2023/10/07 00:59:36;;;;;;;7.83;5.10;;;9.30;99.90;;;;;;5032459;28;20478;-62
2023/10/07 01:02:06;;;;;;;7.43;6.32;;;9.20;99.90;;;;;;5032747;28;20474;-62
2023/10/07 01:04:40;;;;;;;8.20;7.40;;;9.20;99.90;;;;;;5032713;28;20201;-62
2023/10/07 01:07:16;;;;;;;7.67;5.57;;;9.20;99.90;;;;;;5032742;28;20474;-62
2023/10/07 01:09:57;;;;;;;6.60;5.60;;;9.20;99.90;;;;;;5032286;28;20990;-61
2023/10/07 01:12:25;;;;;;;8.10;7.30;;;9.20;99.90;;;;;;5032495;28;20501;-62
2023/10/07 01:14:52;;;;;;;6.23;5.63;;;9.20;99.90;;;;;;5032306;28;20951;-62
2023/10/07 01:17:30;;;;;;;10.30;6.80;;;9.10;99.90;;;;;;5032404;28;20456;-62
2023/10/07 01:19:57;;;;;;;12.17;6.07;;;9.10;99.90;;;;;;5032179;28;20981;-62
2023/10/07 01:22:35;;;;;;;8.20;5.43;;;9.10;99.90;;;;;;5032286;28;20447;-62
2023/10/07 01:25:06;;;;;;;7.87;5.90;;;9.10;99.90;;;;;;5032229;28;20452;-62
2023/10/07 01:27:42;;;;;;;8.43;6.90;;;9.10;99.90;;;;;;5031758;28;20461;-62
2023/10/07 01:30:16;;;;;;;5.73;5.23;;;9.10;99.90;;;;;;5032811;28;20508;-62
2023/10/07 01:32:49;;;;;;;6.00;5.30;;;9.10;99.90;;;;;;5031298;28;20642;-62
2023/10/07 01:35:25;;;;;;;7.27;5.57;;;9.10;99.90;;;;;;5032122;28;20505;-62
2023/10/07 01:37:59;;;;;;;6.13;5.23;;;9.10;99.90;;;;;;5031619;28;20482;-62
2023/10/07 01:40:32;;;;;;;7.90;6.00;;;9.10;99.90;;;;;;5032046;28;21006;-62
2023/10/07 01:43:02;;;;;;;6.20;5.60;;;9.10;99.90;;;;;;5032066;28;20478;-61
2023/10/07 01:45:34;;;;;;;6.17;5.57;;;9.10;99.90;;;;;;5027424;28;20985;-62
2023/10/07 01:48:07;;;;;;;10.50;6.87;;;9.00;99.90;;;;;;5024659;28;20478;-62
2023/10/07 01:50:39;;;;;;;7.13;5.90;;;9.00;99.90;;;;;;5028107;28;20446;-62
2023/10/07 01:53:09;;;;;;;11.13;6.53;;;9.00;99.90;;;;;;5024678;28;20492;-62
2023/10/07 01:55:36;;;;;;;8.73;6.00;;;9.00;99.90;;;;;;5031858;28;20212;-62
2023/10/07 01:58:04;;;;;;;11.23;7.67;;;9.00;99.90;;;;;;5031290;28;20471;-62
2023/10/07 02:00:42;;;;;;;10.53;6.03;;;9.00;99.90;;;;;;5031560;28;20835;-62
2023/10/07 02:03:13;;;;;;;7.33;5.87;;;9.00;99.90;;;;;;5031422;28;20454;-62
2023/10/07 02:05:41;;;;;;;8.10;5.83;;;8.90;99.90;;;;;;5031402;28;20551;-61
2023/10/07 02:08:14;;;;;;;6.88;6.20;;;8.90;99.90;;;;;;5031200;28;20471;-62
2023/10/07 02:10:42;;;;;;;8.13;6.63;;;9.00;99.90;;;;;;5031646;28;20217;-62
2023/10/07 02:13:13;;;;;;;6.63;6.03;;;8.90;99.90;;;;;;5031349;28;20487;-62
2023/10/07 02:15:42;;;;;;;8.10;6.40;;;8.90;99.90;;;;;;5031187;28;20457;-62
2023/10/07 02:18:13;;;;;;;6.17;5.60;;;8.90;99.90;;;;;;5031186;28;20500;-62
2023/10/07 02:20:40;;;;;;;11.80;9.20;;;8.90;99.90;;;;;;5031447;28;20832;-61
2023/10/07 02:23:12;;;;;;;7.90;6.10;;;8.90;99.90;;;;;;5031330;28;20454;-62
2023/10/07 02:25:43;;;;;;;8.17;7.37;;;8.90;99.90;;;;;;5031216;28;20459;-62
2023/10/07 02:28:10;;;;;;;8.43;6.50;;;8.90;99.90;;;;;;5030810;28;20896;-62
2023/10/07 02:30:49;;;;;;;8.10;6.67;;;8.90;99.90;;;;;;5031441;28;20455;-62
2023/10/07 02:33:16;;;;;;;12.60;6.57;;;8.90;99.90;;;;;;5031006;28;20588;-62
2023/10/07 02:35:46;;;;;;;9.57;7.00;;;8.90;99.90;;;;;;5031130;28;21214;-61
2023/10/07 02:38:24;;;;;;;8.10;7.30;;;8.80;99.90;;;;;;5030672;28;20240;-62
2023/10/07 02:40:51;;;;;;;7.00;6.30;;;8.90;99.90;;;;;;5031102;28;20215;-62
2023/10/07 02:43:18;;;;;;;9.90;8.07;;;8.80;99.90;;;;;;5031205;28;20474;-62
2023/10/07 02:45:45;;;;;;;7.63;6.37;;;8.80;99.90;;;;;;5035118;28;20451;-62
2023/10/07 02:48:12;;;;;;;7.43;5.95;;;8.80;99.90;;;;;;5034882;28;20558;-62
2023/10/07 02:50:39;;;;;;;9.02;7.97;;;8.70;99.90;;;;;;5035073;28;20592;-61
2023/10/07 02:53:12;;;;;;;8.88;6.40;;;8.70;99.90;;;;;;5035060;28;20323;-61
2023/10/07 02:55:47;;;;;;;8.80;6.70;;;8.70;99.90;;;;;;5035110;28;20223;-62
2023/10/07 02:58:26;;;;;;;13.75;7.65;;;8.70;99.90;;;;;;5034831;28;20235;-62
2023/10/07 03:00:58;;;;;;;7.03;6.07;;;8.60;99.90;;;;;;5034986;28;20260;-62
2023/10/07 03:03:38;;;;;;;8.75;7.57;;;8.60;99.90;;;;;;5034996;28;20455;-62
2023/10/07 03:06:07;;;;;;;10.80;6.30;;;8.60;99.90;;;;;;5035032;28;20208;-62
2023/10/07 03:08:50;;;;;;;8.50;5.70;;;8.60;99.90;;;;;;5034420;28;20557;-62
2023/10/07 03:11:24;;;;;;;7.20;6.30;;;8.60;99.90;;;;;;5034979;28;20952;-62
2023/10/07 03:13:56;;;;;;;9.38;6.65;;;8.50;99.90;;;;;;5034629;28;20912;-63
2023/10/07 03:16:35;;;;;;;9.63;6.70;;;8.50;99.90;;;;;;5034896;28;20212;-64
2023/10/07 03:19:08;;;;;;;9.07;6.23;;;8.50;99.90;;;;;;5032975;28;20223;-64
2023/10/07 03:24:40;;;;;;;6.90;5.70;;;8.40;99.90;;;;;;5029093;28;20235;-64
2023/10/07 03:27:22;;;;;;;7.40;5.40;;;8.40;99.90;;;;;;5034579;28;20534;-64
2023/10/07 03:29:59;;;;;;;9.47;6.87;;;8.40;99.90;;;;;;5034242;28;20475;-64
2023/10/07 03:32:32;;;;;;;7.15;6.45;;;8.40;99.90;;;;;;5034562;28;20456;-64
2023/10/07 03:35:01;;;;;;;11.85;6.82;;;8.40;99.90;;;;;;5034366;28;20235;-64
2023/10/07 03:37:28;;;;;;;10.07;7.15;;;8.40;99.90;;;;;;5033812;28;20213;-64
2023/10/07 03:40:18;;;;;;;8.68;7.15;;;8.40;99.90;;;;;;5034030;28;20786;-64
2023/10/07 03:42:46;;;;;;;8.70;7.37;;;8.30;99.90;;;;;;5034580;28;20212;-64
2023/10/07 03:45:14;;;;;;;9.90;7.40;;;8.30;99.90;;;;;;5034090;28;20438;-64
2023/10/07 03:47:46;;;;;;;8.85;6.43;;;8.30;99.90;;;;;;5033671;28;20451;-64
2023/10/07 03:50:29;;;;;;;7.77;6.10;;;8.30;99.90;;;;;;5034069;28;20205;-64
2023/10/07 03:52:58;;;;;;;10.57;6.40;;;8.20;99.90;;;;;;5034299;28;20511;-64
2023/10/07 03:55:27;;;;;;;9.70;6.75;;;8.20;99.90;;;;;;5033245;28;20327;-64
2023/10/07 03:57:56;;;;;;;8.30;7.50;;;8.10;99.90;;;;;;5033491;28;20800;-64
2023/10/07 04:00:28;;;;;;;7.47;6.40;;;8.10;99.90;;;;;;5034060;28;20539;-64
2023/10/07 04:03:01;;;;;;;8.90;6.50;;;8.10;99.90;;;;;;5033774;28;20222;-64
2023/10/07 04:05:32;;;;;;;9.70;6.50;;;8.10;99.90;;;;;;5033648;28;20283;-64
2023/10/07 04:08:00;;;;;;;7.85;6.07;;;8.00;99.90;;;;;;5033627;28;20227;-64
2023/10/07 04:10:36;;;;;;;7.83;7.03;;;8.00;99.90;;;;;;5033621;28;20234;-64
2023/10/07 04:13:07;;;;;;;8.48;6.70;;;8.10;99.90;;;;;;5033528;28;20451;-64
2023/10/07 04:15:44;;;;;;;11.50;6.53;;;8.00;99.90;;;;;;5033609;28;20288;-64
2023/10/07 04:18:12;;;;;;;8.50;6.17;;;8.00;99.90;;;;;;5033535;28;20484;-63
2023/10/07 04:20:57;;;;;;;8.48;6.53;;;8.00;99.90;;;;;;5033705;28;20522;-64
2023/10/07 04:23:25;;;;;;;7.80;5.72;;;7.90;99.90;;;;;;5033708;28;20304;-64
2023/10/07 04:25:55;;;;;;;7.63;6.82;;;7.90;99.90;;;;;;5033259;28;20214;-64
2023/10/07 04:28:25;;;;;;;9.85;7.50;;;7.80;99.90;;;;;;5033295;28;20232;-64
2023/10/07 04:30:53;;;;;;;8.90;7.15;;;7.80;99.90;;;;;;5022730;28;20209;-64
2023/10/07 04:33:28;;;;;;;9.60;6.10;;;7.80;99.90;;;;;;5019536;28;20576;-64
2023/10/07 04:36:02;;;;;;;7.88;7.07;;;7.80;99.90;;;;;;5026960;28;20258;-64
2023/10/07 04:41:31;;;;;;;15.23;8.13;;;7.80;99.90;;;;;;5025868;28;20290;-64
2023/10/07 04:43:59;;;;;;;6.60;5.90;;;7.80;99.90;;;;;;5032964;28;20208;-64
2023/10/07 04:46:28;;;;;;;7.75;5.88;;;7.80;99.90;;;;;;5033171;28;20285;-64
2023/10/07 04:48:56;;;;;;;8.05;5.57;;;7.80;99.90;;;;;;5032533;28;20228;-64
2023/10/07 04:51:46;;;;;;;11.45;6.25;;;7.80;99.90;;;;;;5033138;28;20693;-64
2023/10/07 04:54:12;;;;;;;7.70;6.68;;;7.80;99.90;;;;;;5032717;28;20229;-64
2023/10/07 04:56:40;;;;;;;6.82;6.22;;;7.80;99.90;;;;;;5032944;28;20295;-64
2023/10/07 04:59:09;;;;;;;10.23;5.78;;;7.80;99.90;;;;;;5032332;28;20226;-63
2023/10/07 05:01:41;;;;;;;7.50;5.70;;;7.80;99.90;;;;;;5033158;28;20210;-64
2023/10/07 05:04:09;;;;;;;7.72;5.90;;;7.90;99.90;;;;;;5032906;28;20199;-64
2023/10/07 05:06:37;;;;;;;9.32;6.00;;;7.90;99.90;;;;;;5032664;28;20221;-63
2023/10/07 05:09:09;;;;;;;7.07;6.18;;;7.90;99.90;;;;;;5031777;28;20254;-64
2023/10/07 05:11:37;;;;;;;7.63;5.70;;;7.90;99.90;;;;;;5032520;28;20208;-64
2023/10/07 05:14:03;;;;;;;6.47;5.53;;;7.90;99.90;;;;;;5032662;28;20580;-64
2023/10/07 05:16:31;;;;;;;7.53;5.67;;;7.90;99.90;;;;;;5032726;28;20206;-64
2023/10/07 05:18:57;;;;;;;8.73;5.72;;;7.90;99.90;;;;;;5032211;28;20472;-64
2023/10/07 05:21:26;;;;;;;8.93;5.60;;;7.90;99.90;;;;;;5032548;28;20653;-64
2023/10/07 05:23:54;;;;;;;14.40;6.28;;;8.00;99.90;;;;;;5032257;28;20678;-64
2023/10/07 05:26:23;;;;;;;10.15;6.05;;;8.00;99.90;;;;;;5032088;28;20642;-64
2023/10/07 05:28:50;;;;;;;9.60;6.22;;;8.00;99.90;;;;;;5031924;28;20222;-64
2023/10/07 05:31:17;;;;;;;10.20;6.03;;;8.10;99.90;;;;;;5032061;28;20273;-64
2023/10/07 05:33:47;;;;;;;8.35;6.10;;;8.10;99.90;;;;;;5032142;28;20220;-64
2023/10/07 05:36:14;;;;;;;7.33;6.60;;;8.10;99.90;;;;;;5032334;28;20232;-64
2023/10/07 05:38:42;;;;;;;9.77;6.68;;;8.10;99.90;;;;;;5031446;28;20478;-64
2023/10/07 05:41:12;;;;;;;9.13;7.35;;;8.20;99.90;;;;;;5031912;28;20243;-64
2023/10/07 05:43:39;;;;;;;7.88;5.30;;;8.20;99.90;;;;;;5031963;28;20204;-64
2023/10/07 05:46:06;;;;;;;8.50;6.25;;;8.20;99.90;;;;;;5031966;28;20202;-64
2023/10/07 05:48:37;;;;;;;7.43;5.78;;;8.20;99.90;;;;;;5031350;28;20246;-64
2023/10/07 05:51:07;;;;;;;10.52;6.78;;;8.20;99.90;;;;;;5031870;28;20207;-64
2023/10/07 05:53:37;;;;;;;7.40;5.90;;;8.30;99.90;;;;;;5031980;28;20211;-64
2023/10/07 05:56:05;;;;;;;7.88;5.97;;;8.30;99.90;;;;;;5031562;28;20243;-64
2023/10/07 05:58:33;;;;;;;9.68;6.15;;;8.30;99.90;;;;;;5031438;28;20223;-64
2023/10/07 06:01:00;;;;;;;9.70;5.95;;;8.40;99.90;;;;;;5031601;28;20590;-64
2023/10/07 06:03:28;;;;;;;9.17;6.67;;;8.50;99.90;;;;;;5031604;28;20208;-64
2023/10/07 06:05:57;;;;;;;7.53;5.50;;;8.50;99.90;;;;;;5031347;28;20471;-64
2023/10/07 06:08:26;;;;;;;11.27;6.43;;;8.60;99.90;;;;;;5031324;28;20475;-64
2023/10/07 06:10:56;;;;;;;6.90;6.20;;;8.60;99.90;;;;;;5031860;28;20451;-64
2023/10/07 06:13:23;;;;;;;11.63;7.33;;;8.60;99.90;;;;;;5031579;28;20204;-64
2023/10/07 06:15:50;;;;;;;6.38;5.53;;;8.70;99.90;;;;;;5031306;28;20496;-63
2023/10/07 06:18:18;;;;;;;8.82;7.60;;;8.80;99.90;;;;;;5030441;28;20332;-64
2023/10/07 06:20:47;;;;;;;7.95;6.53;;;8.80;99.90;;;;;;5031319;28;20650;-64
2023/10/07 06:23:15;;;;;;;15.73;8.50;;;8.80;99.90;;;;;;5031240;28;20218;-64
2023/10/07 06:25:48;;;;;;;8.45;7.20;;;8.90;99.90;;;;;;5031242;28;20214;-64
2023/10/07 06:28:29;;;;;;;8.73;7.10;;;8.90;99.90;;;;;;5030670;28;20640;-64
2023/10/07 06:31:01;;;;;;;8.70;7.50;;;9.00;99.90;;;;;;5031123;28;20451;-64
2023/10/07 06:33:31;;;;;;;10.43;6.97;;;9.10;99.90;;;;;;5030928;28;20507;-64
2023/10/07 06:35:59;;;;;;;9.13;7.20;;;9.20;99.90;;;;;;5031010;28;20486;-64
2023/10/07 06:38:26;;;;;;;8.80;7.80;;;9.20;99.90;;;;;;5029705;28;20484;-64
2023/10/07 06:40:56;;;;;;;7.93;7.13;;;9.30;99.90;;;;;;5010975;28;20453;-64
2023/10/07 06:43:24;;;;;;;7.30;6.60;;;9.40;99.90;;;;;;5010833;28;20976;-64
2023/10/07 06:45:54;;;;;;;9.10;6.50;;;9.50;99.90;;;;;;5010958;28;20449;-64
2023/10/07 06:48:24;;;;;;;9.40;6.50;;;9.60;99.90;;;;;;5010685;28;21128;-64
2023/10/07 06:50:52;;;;;;;7.80;6.00;;;9.60;99.90;;;;;;5011196;28;20456;-64
2023/10/07 06:53:22;;;;;;;12.57;7.30;;;9.70;99.90;;;;;;5011234;28;20457;-64
2023/10/07 06:55:50;;;;;;;9.30;7.87;;;9.80;99.90;;;;;;5010723;28;20488;-64
2023/10/07 06:58:22;;;;;;;8.03;7.23;;;9.90;99.90;;;;;;5011252;28;20516;-64
2023/10/07 07:00:56;;;;;;;8.40;7.13;;;9.90;99.90;;;;;;5011134;28;21016;-64
2023/10/07 07:03:25;;;;;;;7.30;6.53;;;10.00;99.90;;;;;;5011124;28;20510;-64
2023/10/07 07:05:54;;;;;;;8.47;6.50;;;10.00;99.90;;;;;;5010950;28;20445;-64
2023/10/07 07:08:23;;;;;;;9.67;6.37;;;10.10;99.90;;;;;;5019923;28;20843;-64
2023/10/07 07:10:55;;;;;;;11.43;6.90;;;10.10;99.90;;;;;;5030822;28;20452;-64
2023/10/07 07:13:27;;;;;;;10.00;7.67;;;10.20;99.90;;;;;;5030709;28;20464;-64
2023/10/07 07:15:57;;;;;;;7.80;7.00;;;10.40;99.90;;;;;;5030758;28;20487;-64
2023/10/07 07:18:25;;;;;;;10.40;7.37;;;10.40;99.90;;;;;;5030363;28;20534;-64
2023/10/07 07:21:13;;;;;;;6.70;5.07;;;10.50;99.90;;;;;;5030546;28;20477;-64
2023/10/07 07:23:43;;;;;;;9.83;6.47;;;10.60;99.90;;;;;;5030685;28;20452;-64
2023/10/07 07:26:14;;;;;;;11.13;6.90;;;10.70;99.90;;;;;;5030620;28;20455;-64
2023/10/07 07:28:45;;;;;;;9.83;7.37;;;10.80;99.90;;;;;;5021543;28;20481;-64
2023/10/07 07:31:18;;;;;;;8.50;7.27;;;10.90;99.90;;;;;;5027377;28;20536;-64
2023/10/07 07:33:48;;;;;;;8.47;7.00;;;11.00;99.90;;;;;;5014604;28;20511;-64
2023/10/07 07:36:35;;;;;;;8.20;6.57;;;11.10;99.90;;;;;;5018613;28;20480;-64
2023/10/07 07:39:06;;;;;;;7.50;6.33;;;11.10;99.90;;;;;;5033122;28;20510;-64
2023/10/07 07:41:38;;;;;;;10.07;8.30;;;11.30;99.90;;;;;;5032749;28;20564;-65
2023/10/07 07:44:11;;;;;;;11.37;6.93;;;11.40;99.90;;;;;;5029654;28;20537;-64
2023/10/07 07:46:52;;;;;;;9.30;8.40;;;11.50;99.90;;;;;;5022012;28;20449;-64
2023/10/07 07:49:19;;;;;;;11.00;8.40;;;11.60;99.90;;;;;;5033206;28;20470;-64
2023/10/07 07:51:51;;;;;;;12.00;8.40;;;11.70;99.90;;;;;;5033763;28;20448;-64
2023/10/07 07:54:19;;;;;;;12.40;7.10;;;11.80;99.90;;;;;;5033837;28;20479;-64
2023/10/07 07:56:48;;;;;;;9.80;7.83;;;12.00;99.90;;;;;;5033371;28;20531;-64
2023/10/07 07:59:18;;;;;;;9.10;7.47;;;12.10;99.90;;;;;;5032298;28;20468;-64
2023/10/07 08:01:46;;;;;;;8.47;6.70;;;12.20;99.90;;;;;;5012298;28;20512;-64
2023/10/07 08:04:18;;;;;;;9.60;8.27;;;12.30;99.90;;;;;;5013470;28;20446;-64
2023/10/07 08:06:47;;;;;;;13.90;12.53;;;12.30;99.90;;;;;;5012517;28;20458;-65
2023/10/07 08:09:19;;;;;;;11.60;8.13;;;12.40;99.90;;;;;;5012863;28;20484;-65
2023/10/07 08:11:49;;;;;;;14.87;9.10;;;12.50;99.90;;;;;;5013188;28;20457;-64
2023/10/07 08:14:18;;;;;;;7.80;7.07;;;12.60;99.90;;;;;;5013683;28;20936;-65
2023/10/07 08:16:51;;;;;;;8.30;6.87;;;12.70;99.90;;;;;;5013262;28;20577;-65
2023/10/07 08:19:20;;;;;;;7.10;6.17;;;12.80;99.90;;;;;;5012999;28;20470;-65
2023/10/07 08:21:51;;;;;;;8.47;6.23;;;12.90;99.90;;;;;;5014271;28;20508;-65
2023/10/07 08:24:19;;;;;;;6.37;5.57;;;13.10;99.90;;;;;;5013348;28;20520;-65
2023/10/07 08:26:48;;;;;;;9.60;7.17;;;13.20;99.90;;;;;;5013152;28;20450;-65
2023/10/07 08:29:31;;;;;;;8.73;6.37;;;13.30;99.90;;;;;;5012872;28;20549;-65
2023/10/07 08:31:59;;;;;;;10.57;7.27;;;13.40;99.90;;;;;;5013033;28;20880;-65
2023/10/07 08:34:33;;;;;;;9.77;6.30;;;13.50;99.90;;;;;;5012898;28;20484;-65
2023/10/07 08:37:02;;;;;;;11.47;6.87;;;13.60;99.90;;;;;;5012906;28;20883;-65
2023/10/07 08:39:44;;;;;;;10.10;6.83;;;13.60;99.90;;;;;;5012604;28;20550;-65
2023/10/07 08:42:14;;;;;;;7.23;6.23;;;13.80;99.90;;;;;;5012858;28;20885;-66
2023/10/07 08:44:42;;;;;;;8.80;6.20;;;13.80;99.90;;;;;;5012987;28;20459;-65
2023/10/07 08:47:11;;;;;;;7.00;6.20;;;13.90;99.90;;;;;;5012653;28;20442;-65
2023/10/07 08:49:39;;;;;;;7.10;6.17;;;14.00;99.90;;;;;;5012351;28;20472;-65
2023/10/07 08:52:08;;;;;;;7.10;6.27;;;14.00;99.90;;;;;;5012328;28;20452;-65
2023/10/07 08:54:37;;;;;;;9.40;8.10;;;14.00;99.90;;;;;;5012454;28;20917;-65
2023/10/07 08:57:10;;;;;;;7.73;5.87;;;14.00;99.90;;;;;;5012612;28;21026;-65
2023/10/07 08:59:38;;;;;;;9.00;5.70;;;14.00;99.90;;;;;;5012054;28;20511;-65
2023/10/07 09:02:12;;;;;;;10.23;6.03;;;14.00;99.90;;;;;;5012304;28;20463;-65
2023/10/07 09:04:40;;;;;;;10.77;6.80;;;14.00;99.90;;;;;;5012276;28;20953;-65
2023/10/07 09:07:08;;;;;;;10.57;5.67;;;14.10;99.90;;;;;;5011926;28;20459;-65
2023/10/07 09:09:38;;;;;;;7.70;5.60;;;14.20;99.90;;;;;;5012016;28;20474;-65
2023/10/07 09:12:14;;;;;;;8.47;5.03;;;14.20;99.90;;;;;;5012513;28;20833;-65
2023/10/07 09:14:47;;;;;;;9.60;5.80;;;14.30;99.90;;;;;;5012406;28;20487;-65
2023/10/07 09:17:15;;;;;;;7.47;6.63;;;14.50;99.90;;;;;;5012177;28;20457;-65
2023/10/07 09:19:47;;;;;;;7.97;5.53;;;14.60;99.90;;;;;;5011573;28;20478;-65
2023/10/07 09:22:21;;;;;;;8.30;5.97;;;14.70;99.90;;;;;;5013923;28;20451;-65
2023/10/07 09:24:48;;;;;;;6.60;6.00;;;14.90;99.90;;;;;;5023176;28;20964;-65
2023/10/07 09:27:15;;;;;;;6.70;5.40;;;15.00;99.90;;;;;;5016555;28;20457;-63
2023/10/07 09:29:51;;;;;;;7.57;5.23;;;15.20;99.90;;;;;;5027776;28;20538;-63
2023/10/07 09:32:22;;;;;;;5.30;4.80;;;15.30;99.90;;;;;;5019233;28;20450;-63
2023/10/07 09:34:49;;;;;;;6.00;4.97;;;15.50;99.90;;;;;;5019917;28;20453;-62
2023/10/07 09:37:21;;;;;;;5.70;4.83;;;15.60;99.90;;;;;;5026778;28;20454;-62
2023/10/07 09:40:01;;;;;;;6.03;4.63;;;15.70;99.90;;;;;;5014662;28;20645;-63
2023/10/07 09:42:36;;;;;;;7.23;6.30;;;15.80;99.90;;;;;;5021938;28;20443;-63
2023/10/07 09:45:16;;;;;;;7.50;4.77;;;15.90;99.90;;;;;;5024887;28;20958;-63
2023/10/07 09:47:44;;;;;;;6.80;5.33;;;15.90;99.90;;;;;;5014831;28;20833;-63
2023/10/07 09:50:19;;;;;;;6.73;5.17;;;15.90;99.90;;;;;;5024833;28;20829;-63
2023/10/07 09:52:51;;;;;;;6.27;4.87;;;15.90;99.90;;;;;;5022129;28;20451;-63
2023/10/07 09:55:40;;;;;;;7.33;6.67;;;15.90;99.90;;;;;;5015410;28;20482;-63
2023/10/07 09:58:36;;;;;;;5.50;4.47;;;16.00;99.90;;;;;;5016790;28;20460;-63
2023/10/07 10:01:16;;;;;;;6.57;5.23;;;16.00;99.90;;;;;;5017210;28;20531;-62
2023/10/07 10:04:03;;;;;;;6.90;6.00;;;16.10;99.90;;;;;;5027499;28;20804;-63
2023/10/07 10:06:49;;;;;;;5.53;4.90;;;16.10;99.90;;;;;;5019880;28;20866;-62
2023/10/07 10:09:24;;;;;;;7.40;4.90;;;16.20;99.90;;;;;;5015160;28;21013;-62
2023/10/07 10:12:18;;;;;;;5.97;5.00;;;16.20;99.90;;;;;;5014606;28;20451;-62
2023/10/07 10:14:56;;;;;;;9.13;4.97;;;16.30;99.90;;;;;;5019652;28;20450;-63
2023/10/07 10:17:32;;;;;;;10.03;4.33;;;16.40;99.90;;;;;;5026868;28;20905;-63
2023/10/07 10:20:11;;;;;;;8.83;5.00;;;16.60;99.90;;;;;;5015330;28;20455;-62
2023/10/07 10:22:39;;;;;;;5.60;5.00;;;16.70;99.90;;;;;;5020736;28;20441;-62
2023/10/07 10:25:22;;;;;;;5.00;4.50;;;16.70;99.90;;;;;;5024557;28;20514;-62
2023/10/07 10:27:51;;;;;;;6.40;4.50;;;16.80;99.90;;;;;;5013835;28;20520;-63
2023/10/07 10:30:22;;;;;;;5.47;4.30;;;16.80;99.90;;;;;;5023076;28;20887;-62
2023/10/07 10:32:54;;;;;;;5.77;4.90;;;16.90;99.90;;;;;;5022318;28;20817;-62
2023/10/07 10:35:25;;;;;;;11.13;5.97;;;16.90;99.90;;;;;;5014346;28;20456;-63
2023/10/07 10:37:56;;;;;;;7.80;4.67;;;17.00;99.90;;;;;;5014080;28;20903;-62
2023/10/07 10:40:23;;;;;;;4.30;4.00;;;17.10;99.90;;;;;;5022418;28;20450;-62
2023/10/07 10:42:51;;;;;;;8.63;6.40;;;17.10;99.90;;;;;;5022079;28;20487;-63
2023/10/07 10:45:21;;;;;;;6.60;4.63;;;17.20;99.90;;;;;;5014716;28;20455;-62
2023/10/07 10:47:50;;;;;;;7.17;5.60;;;17.30;99.90;;;;;;5026563;28;20480;-62
2023/10/07 10:50:19;;;;;;;5.23;4.73;;;17.40;99.90;;;;;;5017680;28;20480;-63
2023/10/07 10:52:48;;;;;;;6.20;5.20;;;17.40;99.90;;;;;;5019183;28;20949;-63
2023/10/07 10:55:15;;;;;;;6.60;4.30;;;17.60;99.90;;;;;;5025322;28;20456;-63
2023/10/07 10:57:42;;;;;;;5.93;5.20;;;17.50;99.90;;;;;;5013423;28;20544;-62
2023/10/07 11:00:19;;;;;;;5.50;5.00;;;17.60;99.90;;;;;;5024152;28;20528;-63
2023/10/07 11:02:46;;;;;;;5.10;4.70;;;17.70;99.90;;;;;;5021542;28;20532;-63
2023/10/07 11:05:13;;;;;;;8.40;4.63;;;17.70;99.90;;;;;;5016452;28;20949;-63
2023/10/07 11:07:40;;;;;;;5.03;4.53;;;17.80;99.90;;;;;;5030050;28;20459;-63
2023/10/07 11:10:10;;;;;;;5.00;4.20;;;17.80;99.90;;;;;;5020030;28;20540;-63
2023/10/07 11:12:38;;;;;;;4.83;4.30;;;17.90;99.90;;;;;;5023894;28;20481;-63
2023/10/07 11:15:12;;;;;;;7.57;4.50;;;17.90;99.90;;;;;;5027928;28;20960;-63
2023/10/07 11:17:41;;;;;;;7.90;5.13;;;18.00;99.90;;;;;;5017008;28;20481;-63
2023/10/07 11:20:12;;;;;;;4.37;3.90;;;17.90;99.90;;;;;;5027779;28;20453;-62
2023/10/07 11:22:40;;;;;;;5.63;4.60;;;17.90;99.90;;;;;;5024356;28;20799;-63
2023/10/07 11:25:14;;;;;;;7.67;5.17;;;17.90;99.90;;;;;;5019633;28;20901;-63
2023/10/07 11:27:42;;;;;;;7.70;4.40;;;17.90;99.90;;;;;;5029879;28;20523;-62
2023/10/07 11:30:12;;;;;;;6.30;4.20;;;18.00;99.90;;;;;;5020050;28;20440;-63
2023/10/07 11:32:39;;;;;;;8.60;4.87;;;18.00;99.90;;;;;;5023336;28;20452;-63
2023/10/07 11:35:17;;;;;;;7.63;4.60;;;18.20;99.90;;;;;;5027576;28;20822;-62
2023/10/07 11:37:49;;;;;;;4.27;3.87;;;18.20;99.90;;;;;;5016617;28;20870;-63
2023/10/07 11:40:18;;;;;;;5.30;4.77;;;18.30;99.90;;;;;;5026564;28;20590;-62
2023/10/07 11:42:45;;;;;;;5.93;4.57;;;18.40;99.90;;;;;;5024632;28;20448;-62
2023/10/07 11:45:12;;;;;;;5.60;4.70;;;18.40;99.90;;;;;;5018388;28;20458;-62
2023/10/07 11:47:41;;;;;;;4.60;4.17;;;18.50;99.90;;;;;;5023513;28;20438;-63
2023/10/07 11:50:09;;;;;;;7.27;4.80;;;18.60;99.90;;;;;;5027459;28;20472;-63
2023/10/07 11:52:37;;;;;;;5.00;4.43;;;18.70;99.90;;;;;;5023321;28;20476;-63
2023/10/07 11:55:07;;;;;;;6.97;4.73;;;18.70;99.90;;;;;;5019542;28;20473;-63
2023/10/07 11:57:37;;;;;;;5.20;4.43;;;18.80;99.90;;;;;;5029214;28;20488;-62
2023/10/07 12:00:09;;;;;;;4.47;4.07;;;18.80;99.90;;;;;;5018516;28;20822;-63
2023/10/07 12:02:38;;;;;;;6.10;5.20;;;18.90;99.90;;;;;;5023304;28;20442;-62
2023/10/07 12:05:06;;;;;;;5.53;5.00;;;18.90;99.90;;;;;;5026920;28;20449;-62
2023/10/07 12:07:36;;;;;;;4.77;4.30;;;19.00;99.90;;;;;;5015983;28;21268;-62
2023/10/07 12:10:05;;;;;;;6.77;4.70;;;19.00;99.90;;;;;;5027628;28;20557;-63
2023/10/07 12:12:32;;;;;;;5.70;4.67;;;19.10;99.90;;;;;;5022003;28;20441;-63
2023/10/07 12:15:00;;;;;;;5.67;4.37;;;19.00;99.90;;;;;;5019781;28;20442;-63
2023/10/07 12:17:29;;;;;;;5.23;4.73;;;19.10;99.90;;;;;;5028489;28;20573;-63
2023/10/07 12:19:56;;;;;;;4.83;4.33;;;19.20;99.90;;;;;;5017311;28;20465;-63
2023/10/07 12:22:23;;;;;;;6.73;5.63;;;19.10;99.90;;;;;;5024593;28;20453;-63
2023/10/07 12:24:52;;;;;;;4.17;3.87;;;19.10;99.90;;;;;;5024442;28;20452;-63
2023/10/07 12:27:19;;;;;;;6.50;4.60;;;19.40;99.90;;;;;;5017140;28;20536;-63
2023/10/07 12:29:48;;;;;;;7.17;3.70;;;19.70;99.90;;;;;;5029065;28;20467;-63
2023/10/07 12:32:16;;;;;;;7.03;4.60;;;19.90;99.90;;;;;;5019431;28;20958;-63
2023/10/07 12:34:47;;;;;;;7.20;3.93;;;19.90;99.90;;;;;;5021914;28;20448;-64
2023/10/07 12:37:14;;;;;;;6.70;4.70;;;19.90;99.90;;;;;;5027406;28;20540;-63
2023/10/07 12:39:44;;;;;;;4.37;3.97;;;19.90;99.90;;;;;;5015576;28;20552;-63
2023/10/07 12:42:12;;;;;;;9.07;4.50;;;19.90;99.90;;;;;;5025850;28;20453;-63
2023/10/07 12:44:40;;;;;;;5.23;4.40;;;20.00;99.90;;;;;;5022743;28;20461;-63
2023/10/07 12:47:08;;;;;;;5.20;4.70;;;19.90;99.90;;;;;;5018150;28;21617;-63
2023/10/07 12:49:40;;;;;;;4.67;4.27;;;19.90;99.90;;;;;;5028379;28;20465;-62
2023/10/07 12:52:07;;;;;;;5.37;3.87;;;19.90;99.90;;;;;;5017903;28;20460;-63
2023/10/07 12:54:34;;;;;;;6.83;4.40;;;20.00;99.90;;;;;;5022527;28;20489;-62
2023/10/07 12:57:03;;;;;;;5.90;4.20;;;20.00;99.90;;;;;;5025358;28;20491;-62
2023/10/07 12:59:35;;;;;;;5.07;4.13;;;20.00;99.90;;;;;;5015156;28;20467;-63
2023/10/07 13:02:03;;;;;;;6.13;4.23;;;20.20;99.90;;;;;;5026728;28;20473;-62
2023/10/07 13:04:34;;;;;;;6.40;4.70;;;20.20;99.90;;;;;;5020964;28;20449;-63
2023/10/07 13:07:09;;;;;;;5.07;4.67;;;20.20;99.90;;;;;;5018567;28;20964;-63
2023/10/07 13:09:40;;;;;;;7.70;4.70;;;20.20;99.90;;;;;;5027942;28;20586;-63
2023/10/07 13:12:12;;;;;;;5.03;4.13;;;20.40;99.90;;;;;;5017802;28;20930;-63
2023/10/07 13:14:41;;;;;;;6.20;4.80;;;20.70;99.90;;;;;;5022412;28;20444;-63
2023/10/07 13:17:13;;;;;;;5.93;4.07;;;21.10;99.90;;;;;;5017105;28;20492;-63